sensor_id;sensor_type;location;lat;lon;timestamp;P1;durP1;ratioP1;P2;durP2;ratioP2
46755;SDS011;32506;52.826;-1.192;2022-09-12T00:00:25;7.03;;;1.90;;
46755;SDS011;32506;52.826;-1.192;2022-09-12T00:02:52;4.95;;;2.58;;
46755;SDS011;32506;52.826;-1.192;2022-09-12T00:05:17;6.68;;;2.53;;
46755;SDS011;32506;52.826;-1.192;2022-09-12T00:07:43;4.72;;;2.35;;
46755;SDS011;32506;52.826;-1.192;2022-09-12T00:10:09;5.38;;;2.20;;
46755;SDS011;32506;52.826;-1.192;2022-09-12T00:12:34;5.05;;;2.30;;
46755;SDS011;32506;52.826;-1.192;2022-09-12T00:14:59;5.28;;;2.58;;
46755;SDS011;32506;52.826;-1.192;2022-09-12T00:17:25;5.80;;;2.45;;
46755;SDS011;32506;52.826;-1.192;2022-09-12T00:19:50;4.75;;;2.55;;
46755;SDS011;32506;52.826;-1.192;2022-09-12T00:22:16;5.60;;;2.63;;
46755;SDS011;32506;52.826;-1.192;2022-09-12T00:24:41;4.88;;;2.88;;
46755;SDS011;32506;52.826;-1.192;2022-09-12T00:27:07;5.47;;;3.00;;
46755;SDS011;32506;52.826;-1.192;2022-09-12T00:29:32;7.03;;;3.20;;
46755;SDS011;32506;52.826;-1.192;2022-09-12T00:31:58;7.15;;;3.20;;
46755;SDS011;32506;52.826;-1.192;2022-09-12T00:34:23;7.20;;;3.22;;
46755;SDS011;32506;52.826;-1.192;2022-09-12T00:36:48;7.90;;;3.53;;
46755;SDS011;32506;52.826;-1.192;2022-09-12T00:39:15;5.35;;;3.17;;
46755;SDS011;32506;52.826;-1.192;2022-09-12T00:41:41;6.47;;;3.55;;
46755;SDS011;32506;52.826;-1.192;2022-09-12T00:49:24;5.88;;;3.60;;
46755;SDS011;32506;52.826;-1.192;2022-09-12T00:52:07;6.45;;;3.45;;
46755;SDS011;32506;52.826;-1.192;2022-09-12T00:54:58;9.00;;;3.97;;
46755;SDS011;32506;52.826;-1.192;2022-09-12T00:57:27;6.53;;;3.25;;
46755;SDS011;32506;52.826;-1.192;2022-09-12T01:00:03;7.65;;;3.28;;
46755;SDS011;32506;52.826;-1.192;2022-09-12T01:02:38;6.35;;;3.75;;
46755;SDS011;32506;52.826;-1.192;2022-09-12T01:05:04;6.68;;;3.42;;
46755;SDS011;32506;52.826;-1.192;2022-09-12T01:07:32;8.50;;;3.88;;
46755;SDS011;32506;52.826;-1.192;2022-09-12T01:10:00;4.85;;;3.65;;
46755;SDS011;32506;52.826;-1.192;2022-09-12T01:12:25;6.07;;;3.47;;
46755;SDS011;32506;52.826;-1.192;2022-09-12T01:14:51;5.65;;;3.80;;
46755;SDS011;32506;52.826;-1.192;2022-09-12T01:17:16;6.07;;;4.05;;
46755;SDS011;32506;52.826;-1.192;2022-09-12T01:19:48;6.85;;;3.88;;
46755;SDS011;32506;52.826;-1.192;2022-09-12T01:36:41;5.47;;;3.78;;
46755;SDS011;32506;52.826;-1.192;2022-09-12T01:42:48;9.32;;;4.88;;
46755;SDS011;32506;52.826;-1.192;2022-09-12T01:45:23;6.60;;;3.70;;
46755;SDS011;32506;52.826;-1.192;2022-09-12T01:47:58;7.70;;;4.45;;
46755;SDS011;32506;52.826;-1.192;2022-09-12T01:50:30;6.05;;;3.97;;
46755;SDS011;32506;52.826;-1.192;2022-09-12T01:53:01;9.18;;;4.60;;
46755;SDS011;32506;52.826;-1.192;2022-09-12T01:55:37;5.97;;;4.15;;
46755;SDS011;32506;52.826;-1.192;2022-09-12T01:58:37;7.60;;;4.53;;
46755;SDS011;32506;52.826;-1.192;2022-09-12T02:03:42;8.65;;;4.72;;
46755;SDS011;32506;52.826;-1.192;2022-09-12T02:08:47;7.00;;;3.78;;
46755;SDS011;32506;52.826;-1.192;2022-09-12T02:11:17;7.72;;;4.65;;
46755;SDS011;32506;52.826;-1.192;2022-09-12T02:13:48;5.80;;;4.07;;
46755;SDS011;32506;52.826;-1.192;2022-09-12T02:16:39;7.45;;;4.22;;
46755;SDS011;32506;52.826;-1.192;2022-09-12T02:19:07;7.82;;;4.65;;
46755;SDS011;32506;52.826;-1.192;2022-09-12T02:21:36;5.47;;;3.50;;
46755;SDS011;32506;52.826;-1.192;2022-09-12T02:24:06;8.70;;;4.32;;
46755;SDS011;32506;52.826;-1.192;2022-09-12T02:26:35;7.38;;;4.57;;
46755;SDS011;32506;52.826;-1.192;2022-09-12T02:29:08;7.13;;;4.88;;
46755;SDS011;32506;52.826;-1.192;2022-09-12T02:31:47;6.43;;;4.15;;
46755;SDS011;32506;52.826;-1.192;2022-09-12T02:34:26;10.85;;;5.03;;
46755;SDS011;32506;52.826;-1.192;2022-09-12T02:37:01;7.80;;;4.85;;
46755;SDS011;32506;52.826;-1.192;2022-09-12T02:39:47;7.80;;;4.68;;
46755;SDS011;32506;52.826;-1.192;2022-09-12T02:42:13;6.63;;;4.80;;
46755;SDS011;32506;52.826;-1.192;2022-09-12T02:44:38;8.88;;;5.00;;
46755;SDS011;32506;52.826;-1.192;2022-09-12T02:47:07;7.60;;;4.78;;
46755;SDS011;32506;52.826;-1.192;2022-09-12T02:49:45;7.93;;;4.82;;
46755;SDS011;32506;52.826;-1.192;2022-09-12T02:52:11;7.60;;;5.50;;
46755;SDS011;32506;52.826;-1.192;2022-09-12T02:54:37;8.82;;;4.90;;
46755;SDS011;32506;52.826;-1.192;2022-09-12T02:57:05;10.43;;;5.65;;
46755;SDS011;32506;52.826;-1.192;2022-09-12T02:59:40;7.75;;;4.70;;
46755;SDS011;32506;52.826;-1.192;2022-09-12T03:02:11;9.88;;;4.95;;
46755;SDS011;32506;52.826;-1.192;2022-09-12T03:15:53;7.40;;;3.92;;
46755;SDS011;32506;52.826;-1.192;2022-09-12T03:21:08;6.18;;;4.47;;
46755;SDS011;32506;52.826;-1.192;2022-09-12T03:26:34;7.90;;;4.55;;
46755;SDS011;32506;52.826;-1.192;2022-09-12T03:29:06;7.72;;;4.30;;
46755;SDS011;32506;52.826;-1.192;2022-09-12T03:31:32;5.65;;;3.88;;
46755;SDS011;32506;52.826;-1.192;2022-09-12T03:33:58;6.55;;;3.70;;
46755;SDS011;32506;52.826;-1.192;2022-09-12T03:36:26;7.57;;;4.05;;
46755;SDS011;32506;52.826;-1.192;2022-09-12T03:38:53;7.53;;;4.35;;
46755;SDS011;32506;52.826;-1.192;2022-09-12T03:41:19;7.82;;;4.22;;
46755;SDS011;32506;52.826;-1.192;2022-09-12T03:43:45;5.22;;;3.58;;
46755;SDS011;32506;52.826;-1.192;2022-09-12T03:46:10;6.65;;;3.85;;
46755;SDS011;32506;52.826;-1.192;2022-09-12T03:48:36;5.55;;;3.90;;
46755;SDS011;32506;52.826;-1.192;2022-09-12T03:51:02;5.57;;;3.67;;
46755;SDS011;32506;52.826;-1.192;2022-09-12T03:53:30;5.88;;;4.72;;
46755;SDS011;32506;52.826;-1.192;2022-09-12T03:55:56;7.15;;;4.72;;
46755;SDS011;32506;52.826;-1.192;2022-09-12T03:58:23;7.65;;;4.28;;
46755;SDS011;32506;52.826;-1.192;2022-09-12T04:00:48;7.82;;;5.00;;
46755;SDS011;32506;52.826;-1.192;2022-09-12T04:03:14;9.32;;;4.60;;
46755;SDS011;32506;52.826;-1.192;2022-09-12T04:05:40;8.10;;;5.38;;
46755;SDS011;32506;52.826;-1.192;2022-09-12T04:08:05;5.85;;;4.07;;
46755;SDS011;32506;52.826;-1.192;2022-09-12T04:10:30;8.93;;;4.72;;
46755;SDS011;32506;52.826;-1.192;2022-09-12T04:12:56;7.75;;;4.18;;
46755;SDS011;32506;52.826;-1.192;2022-09-12T04:15:22;6.50;;;4.43;;
46755;SDS011;32506;52.826;-1.192;2022-09-12T04:17:47;8.18;;;4.75;;
46755;SDS011;32506;52.826;-1.192;2022-09-12T04:20:12;9.68;;;4.43;;
46755;SDS011;32506;52.826;-1.192;2022-09-12T04:22:38;8.48;;;4.18;;
46755;SDS011;32506;52.826;-1.192;2022-09-12T04:25:04;7.18;;;4.45;;
46755;SDS011;32506;52.826;-1.192;2022-09-12T04:27:30;8.10;;;4.20;;
46755;SDS011;32506;52.826;-1.192;2022-09-12T04:29:55;9.13;;;5.10;;
46755;SDS011;32506;52.826;-1.192;2022-09-12T04:32:22;9.07;;;5.80;;
46755;SDS011;32506;52.826;-1.192;2022-09-12T04:34:47;7.45;;;4.60;;
46755;SDS011;32506;52.826;-1.192;2022-09-12T04:37:13;9.30;;;4.28;;
46755;SDS011;32506;52.826;-1.192;2022-09-12T04:39:38;6.93;;;4.68;;
46755;SDS011;32506;52.826;-1.192;2022-09-12T04:42:05;6.45;;;4.20;;
46755;SDS011;32506;52.826;-1.192;2022-09-12T04:44:30;7.10;;;4.38;;
46755;SDS011;32506;52.826;-1.192;2022-09-12T04:46:56;10.43;;;4.78;;
46755;SDS011;32506;52.826;-1.192;2022-09-12T04:49:21;7.05;;;3.40;;
46755;SDS011;32506;52.826;-1.192;2022-09-12T04:51:47;5.70;;;4.15;;
46755;SDS011;32506;52.826;-1.192;2022-09-12T04:54:16;5.95;;;4.18;;
46755;SDS011;32506;52.826;-1.192;2022-09-12T04:56:44;5.38;;;3.85;;
46755;SDS011;32506;52.826;-1.192;2022-09-12T04:59:12;4.10;;;2.80;;
46755;SDS011;32506;52.826;-1.192;2022-09-12T05:01:39;6.90;;;2.92;;
46755;SDS011;32506;52.826;-1.192;2022-09-12T05:04:05;5.65;;;3.58;;
46755;SDS011;32506;52.826;-1.192;2022-09-12T05:06:32;6.85;;;3.92;;
46755;SDS011;32506;52.826;-1.192;2022-09-12T05:08:59;8.10;;;4.07;;
46755;SDS011;32506;52.826;-1.192;2022-09-12T05:11:27;10.48;;;4.07;;
46755;SDS011;32506;52.826;-1.192;2022-09-12T05:13:54;4.70;;;3.25;;
46755;SDS011;32506;52.826;-1.192;2022-09-12T05:16:20;6.45;;;3.40;;
46755;SDS011;32506;52.826;-1.192;2022-09-12T05:18:46;6.07;;;3.58;;
46755;SDS011;32506;52.826;-1.192;2022-09-12T05:21:16;7.70;;;3.10;;
46755;SDS011;32506;52.826;-1.192;2022-09-12T05:23:43;5.68;;;2.92;;
46755;SDS011;32506;52.826;-1.192;2022-09-12T05:26:11;4.95;;;2.97;;
46755;SDS011;32506;52.826;-1.192;2022-09-12T05:28:39;5.65;;;2.67;;
46755;SDS011;32506;52.826;-1.192;2022-09-12T05:31:16;3.40;;;2.92;;
46755;SDS011;32506;52.826;-1.192;2022-09-12T05:33:46;5.07;;;3.10;;
46755;SDS011;32506;52.826;-1.192;2022-09-12T05:36:17;4.38;;;2.40;;
46755;SDS011;32506;52.826;-1.192;2022-09-12T05:38:45;4.70;;;2.30;;
46755;SDS011;32506;52.826;-1.192;2022-09-12T05:41:15;6.15;;;2.72;;
46755;SDS011;32506;52.826;-1.192;2022-09-12T05:43:45;4.70;;;2.90;;
46755;SDS011;32506;52.826;-1.192;2022-09-12T05:46:13;5.22;;;3.00;;
46755;SDS011;32506;52.826;-1.192;2022-09-12T05:48:41;5.50;;;3.25;;
46755;SDS011;32506;52.826;-1.192;2022-09-12T05:51:09;5.70;;;2.63;;
46755;SDS011;32506;52.826;-1.192;2022-09-12T05:53:37;6.28;;;3.22;;
46755;SDS011;32506;52.826;-1.192;2022-09-12T05:56:04;5.10;;;3.03;;
46755;SDS011;32506;52.826;-1.192;2022-09-12T05:58:35;5.00;;;2.63;;
46755;SDS011;32506;52.826;-1.192;2022-09-12T06:01:03;6.20;;;2.40;;
46755;SDS011;32506;52.826;-1.192;2022-09-12T06:03:33;6.03;;;3.08;;
46755;SDS011;32506;52.826;-1.192;2022-09-12T06:06:03;3.95;;;3.03;;
46755;SDS011;32506;52.826;-1.192;2022-09-12T06:08:30;4.80;;;2.83;;
46755;SDS011;32506;52.826;-1.192;2022-09-12T06:10:57;5.55;;;3.60;;
46755;SDS011;32506;52.826;-1.192;2022-09-12T06:13:24;7.70;;;3.15;;
46755;SDS011;32506;52.826;-1.192;2022-09-12T06:15:49;7.15;;;3.90;;
46755;SDS011;32506;52.826;-1.192;2022-09-12T06:18:14;6.18;;;3.03;;
46755;SDS011;32506;52.826;-1.192;2022-09-12T06:20:40;8.90;;;3.80;;
46755;SDS011;32506;52.826;-1.192;2022-09-12T06:23:05;7.50;;;3.55;;
46755;SDS011;32506;52.826;-1.192;2022-09-12T06:25:31;7.53;;;3.35;;
46755;SDS011;32506;52.826;-1.192;2022-09-12T06:27:56;6.00;;;3.85;;
46755;SDS011;32506;52.826;-1.192;2022-09-12T06:30:22;6.95;;;3.50;;
46755;SDS011;32506;52.826;-1.192;2022-09-12T06:32:47;5.35;;;3.42;;
46755;SDS011;32506;52.826;-1.192;2022-09-12T06:35:12;6.47;;;3.40;;
46755;SDS011;32506;52.826;-1.192;2022-09-12T06:37:38;7.00;;;3.58;;
46755;SDS011;32506;52.826;-1.192;2022-09-12T06:40:04;6.82;;;3.13;;
46755;SDS011;32506;52.826;-1.192;2022-09-12T06:42:34;5.80;;;2.85;;
46755;SDS011;32506;52.826;-1.192;2022-09-12T06:44:59;4.78;;;3.00;;
46755;SDS011;32506;52.826;-1.192;2022-09-12T06:47:24;8.13;;;3.05;;
46755;SDS011;32506;52.826;-1.192;2022-09-12T06:49:50;6.05;;;2.85;;
46755;SDS011;32506;52.826;-1.192;2022-09-12T06:52:15;6.97;;;2.65;;
46755;SDS011;32506;52.826;-1.192;2022-09-12T06:54:42;4.95;;;2.20;;
46755;SDS011;32506;52.826;-1.192;2022-09-12T06:57:07;4.78;;;2.08;;
46755;SDS011;32506;52.826;-1.192;2022-09-12T06:59:33;7.78;;;2.53;;
46755;SDS011;32506;52.826;-1.192;2022-09-12T07:01:58;5.30;;;2.17;;
46755;SDS011;32506;52.826;-1.192;2022-09-12T07:04:23;3.85;;;2.15;;
46755;SDS011;32506;52.826;-1.192;2022-09-12T07:06:49;6.90;;;2.55;;
46755;SDS011;32506;52.826;-1.192;2022-09-12T07:09:14;5.32;;;2.17;;
46755;SDS011;32506;52.826;-1.192;2022-09-12T07:11:41;4.35;;;2.20;;
46755;SDS011;32506;52.826;-1.192;2022-09-12T07:14:09;3.28;;;1.90;;
46755;SDS011;32506;52.826;-1.192;2022-09-12T07:16:36;2.95;;;1.50;;
46755;SDS011;32506;52.826;-1.192;2022-09-12T07:19:02;3.90;;;1.60;;
46755;SDS011;32506;52.826;-1.192;2022-09-12T07:21:29;5.93;;;2.03;;
46755;SDS011;32506;52.826;-1.192;2022-09-12T07:23:55;4.32;;;2.15;;
46755;SDS011;32506;52.826;-1.192;2022-09-12T07:26:22;4.82;;;2.33;;
46755;SDS011;32506;52.826;-1.192;2022-09-12T07:28:51;3.35;;;1.88;;
46755;SDS011;32506;52.826;-1.192;2022-09-12T07:31:19;5.63;;;2.03;;
46755;SDS011;32506;52.826;-1.192;2022-09-12T07:33:49;3.95;;;2.10;;
46755;SDS011;32506;52.826;-1.192;2022-09-12T07:36:16;2.45;;;1.63;;
46755;SDS011;32506;52.826;-1.192;2022-09-12T07:38:43;4.13;;;1.70;;
46755;SDS011;32506;52.826;-1.192;2022-09-12T07:41:13;3.28;;;1.73;;
46755;SDS011;32506;52.826;-1.192;2022-09-12T07:43:43;6.45;;;2.22;;
46755;SDS011;32506;52.826;-1.192;2022-09-12T07:46:09;4.88;;;1.90;;
46755;SDS011;32506;52.826;-1.192;2022-09-12T07:48:35;4.68;;;1.70;;
46755;SDS011;32506;52.826;-1.192;2022-09-12T07:51:03;7.60;;;1.90;;
46755;SDS011;32506;52.826;-1.192;2022-09-12T07:53:33;4.10;;;1.75;;
46755;SDS011;32506;52.826;-1.192;2022-09-12T07:56:01;4.40;;;2.08;;
46755;SDS011;32506;52.826;-1.192;2022-09-12T07:58:28;4.85;;;2.00;;
46755;SDS011;32506;52.826;-1.192;2022-09-12T08:01:00;6.70;;;2.33;;
46755;SDS011;32506;52.826;-1.192;2022-09-12T08:03:29;2.63;;;1.73;;
46755;SDS011;32506;52.826;-1.192;2022-09-12T08:06:01;4.72;;;1.67;;
46755;SDS011;32506;52.826;-1.192;2022-09-12T08:08:47;3.78;;;1.98;;
46755;SDS011;32506;52.826;-1.192;2022-09-12T08:11:14;4.60;;;1.85;;
46755;SDS011;32506;52.826;-1.192;2022-09-12T08:13:41;3.75;;;1.80;;
46755;SDS011;32506;52.826;-1.192;2022-09-12T08:16:14;4.60;;;1.77;;
46755;SDS011;32506;52.826;-1.192;2022-09-12T08:18:42;3.85;;;1.50;;
46755;SDS011;32506;52.826;-1.192;2022-09-12T08:21:27;3.42;;;1.50;;
46755;SDS011;32506;52.826;-1.192;2022-09-12T08:23:55;2.83;;;1.60;;
46755;SDS011;32506;52.826;-1.192;2022-09-12T08:26:22;3.63;;;1.75;;
46755;SDS011;32506;52.826;-1.192;2022-09-12T08:28:48;4.15;;;1.40;;
46755;SDS011;32506;52.826;-1.192;2022-09-12T08:31:15;4.15;;;1.70;;
46755;SDS011;32506;52.826;-1.192;2022-09-12T08:33:42;3.97;;;1.63;;
46755;SDS011;32506;52.826;-1.192;2022-09-12T08:36:09;3.63;;;1.42;;
46755;SDS011;32506;52.826;-1.192;2022-09-12T08:38:37;5.03;;;1.52;;
46755;SDS011;32506;52.826;-1.192;2022-09-12T08:41:08;3.08;;;1.30;;
46755;SDS011;32506;52.826;-1.192;2022-09-12T08:46:38;3.17;;;1.73;;
46755;SDS011;32506;52.826;-1.192;2022-09-12T08:49:38;4.03;;;1.60;;
46755;SDS011;32506;52.826;-1.192;2022-09-12T08:55:36;2.78;;;1.40;;
46755;SDS011;32506;52.826;-1.192;2022-09-12T09:00:54;4.32;;;1.70;;
46755;SDS011;32506;52.826;-1.192;2022-09-12T09:17:14;2.88;;;1.10;;
46755;SDS011;32506;52.826;-1.192;2022-09-12T09:19:45;3.88;;;1.27;;
46755;SDS011;32506;52.826;-1.192;2022-09-12T09:22:25;2.70;;;1.30;;
46755;SDS011;32506;52.826;-1.192;2022-09-12T09:25:01;2.92;;;1.40;;
46755;SDS011;32506;52.826;-1.192;2022-09-12T09:27:42;3.20;;;1.00;;
46755;SDS011;32506;52.826;-1.192;2022-09-12T09:30:28;2.00;;;1.25;;
46755;SDS011;32506;52.826;-1.192;2022-09-12T09:32:56;3.13;;;1.30;;
46755;SDS011;32506;52.826;-1.192;2022-09-12T09:35:38;1.60;;;1.10;;
46755;SDS011;32506;52.826;-1.192;2022-09-12T09:38:22;1.70;;;1.25;;
46755;SDS011;32506;52.826;-1.192;2022-09-12T09:46:10;3.78;;;1.42;;
46755;SDS011;32506;52.826;-1.192;2022-09-12T09:48:36;2.40;;;1.30;;
46755;SDS011;32506;52.826;-1.192;2022-09-12T09:51:06;2.42;;;1.20;;
46755;SDS011;32506;52.826;-1.192;2022-09-12T09:56:09;2.05;;;1.10;;
46755;SDS011;32506;52.826;-1.192;2022-09-12T09:58:44;4.20;;;1.50;;
46755;SDS011;32506;52.826;-1.192;2022-09-12T10:01:14;3.05;;;1.77;;
46755;SDS011;32506;52.826;-1.192;2022-09-12T10:03:46;3.50;;;1.80;;
46755;SDS011;32506;52.826;-1.192;2022-09-12T10:08:49;5.72;;;1.35;;
46755;SDS011;32506;52.826;-1.192;2022-09-12T10:16:18;2.50;;;0.98;;
46755;SDS011;32506;52.826;-1.192;2022-09-12T10:18:44;3.40;;;0.98;;
46755;SDS011;32506;52.826;-1.192;2022-09-12T10:23:58;5.47;;;0.88;;
46755;SDS011;32506;52.826;-1.192;2022-09-12T10:26:25;2.28;;;1.00;;
46755;SDS011;32506;52.826;-1.192;2022-09-12T10:28:57;3.10;;;0.73;;
46755;SDS011;32506;52.826;-1.192;2022-09-12T10:31:28;1.65;;;0.70;;
46755;SDS011;32506;52.826;-1.192;2022-09-12T10:34:09;2.47;;;0.93;;
46755;SDS011;32506;52.826;-1.192;2022-09-12T10:36:59;2.17;;;0.65;;
46755;SDS011;32506;52.826;-1.192;2022-09-12T10:39:27;1.40;;;0.70;;
46755;SDS011;32506;52.826;-1.192;2022-09-12T10:41:53;2.45;;;0.75;;
46755;SDS011;32506;52.826;-1.192;2022-09-12T10:44:23;2.25;;;0.77;;
46755;SDS011;32506;52.826;-1.192;2022-09-12T10:46:54;3.30;;;0.80;;
46755;SDS011;32506;52.826;-1.192;2022-09-12T10:49:28;3.28;;;0.88;;
46755;SDS011;32506;52.826;-1.192;2022-09-12T10:51:55;2.17;;;0.90;;
46755;SDS011;32506;52.826;-1.192;2022-09-12T10:54:39;1.70;;;0.50;;
46755;SDS011;32506;52.826;-1.192;2022-09-12T11:02:41;2.72;;;0.70;;
46755;SDS011;32506;52.826;-1.192;2022-09-12T11:21:42;1.95;;;0.88;;
46755;SDS011;32506;52.826;-1.192;2022-09-12T11:30:16;0.93;;;0.40;;
46755;SDS011;32506;52.826;-1.192;2022-09-12T11:35:24;2.63;;;0.73;;
46755;SDS011;32506;52.826;-1.192;2022-09-12T11:46:09;3.83;;;0.75;;
46755;SDS011;32506;52.826;-1.192;2022-09-12T11:48:46;3.00;;;0.70;;
46755;SDS011;32506;52.826;-1.192;2022-09-12T11:51:19;1.75;;;0.60;;
46755;SDS011;32506;52.826;-1.192;2022-09-12T11:53:56;3.05;;;0.80;;
46755;SDS011;32506;52.826;-1.192;2022-09-12T11:56:42;1.80;;;0.70;;
46755;SDS011;32506;52.826;-1.192;2022-09-12T11:59:28;4.15;;;1.00;;
46755;SDS011;32506;52.826;-1.192;2022-09-12T12:02:07;1.83;;;0.60;;
46755;SDS011;32506;52.826;-1.192;2022-09-12T12:04:42;3.80;;;0.80;;
46755;SDS011;32506;52.826;-1.192;2022-09-12T12:07:15;1.85;;;0.52;;
46755;SDS011;32506;52.826;-1.192;2022-09-12T12:09:45;2.13;;;0.80;;
46755;SDS011;32506;52.826;-1.192;2022-09-12T12:12:14;2.05;;;0.60;;
46755;SDS011;32506;52.826;-1.192;2022-09-12T12:14:48;2.22;;;1.02;;
46755;SDS011;32506;52.826;-1.192;2022-09-12T12:17:21;3.88;;;0.80;;
46755;SDS011;32506;52.826;-1.192;2022-09-12T12:19:58;2.65;;;0.88;;
46755;SDS011;32506;52.826;-1.192;2022-09-12T12:22:27;3.35;;;1.00;;
46755;SDS011;32506;52.826;-1.192;2022-09-12T12:25:39;4.00;;;1.00;;
46755;SDS011;32506;52.826;-1.192;2022-09-12T12:35:43;2.40;;;0.80;;
46755;SDS011;32506;52.826;-1.192;2022-09-12T12:38:29;2.80;;;0.80;;
46755;SDS011;32506;52.826;-1.192;2022-09-12T12:43:40;2.92;;;0.80;;
46755;SDS011;32506;52.826;-1.192;2022-09-12T12:46:08;4.05;;;1.05;;
46755;SDS011;32506;52.826;-1.192;2022-09-12T12:51:44;3.75;;;0.88;;
46755;SDS011;32506;52.826;-1.192;2022-09-12T12:54:28;3.63;;;1.13;;
46755;SDS011;32506;52.826;-1.192;2022-09-12T13:02:20;2.35;;;0.80;;
46755;SDS011;32506;52.826;-1.192;2022-09-12T13:04:48;3.70;;;1.20;;
46755;SDS011;32506;52.826;-1.192;2022-09-12T13:07:36;1.42;;;0.85;;
46755;SDS011;32506;52.826;-1.192;2022-09-12T13:10:03;2.90;;;0.85;;
46755;SDS011;32506;52.826;-1.192;2022-09-12T13:12:35;2.30;;;0.80;;
46755;SDS011;32506;52.826;-1.192;2022-09-12T13:17:59;2.55;;;1.00;;
46755;SDS011;32506;52.826;-1.192;2022-09-12T13:20:27;2.22;;;0.68;;
46755;SDS011;32506;52.826;-1.192;2022-09-12T13:22:56;2.63;;;0.93;;
46755;SDS011;32506;52.826;-1.192;2022-09-12T13:25:24;2.97;;;0.98;;
46755;SDS011;32506;52.826;-1.192;2022-09-12T13:28:04;3.28;;;0.90;;
46755;SDS011;32506;52.826;-1.192;2022-09-12T13:30:42;1.73;;;0.80;;
46755;SDS011;32506;52.826;-1.192;2022-09-12T13:41:09;2.83;;;0.77;;
46755;SDS011;32506;52.826;-1.192;2022-09-12T13:43:40;3.55;;;0.70;;
46755;SDS011;32506;52.826;-1.192;2022-09-12T13:46:08;2.90;;;0.93;;
46755;SDS011;32506;52.826;-1.192;2022-09-12T13:48:40;2.03;;;0.80;;
46755;SDS011;32506;52.826;-1.192;2022-09-12T13:51:06;3.92;;;1.00;;
46755;SDS011;32506;52.826;-1.192;2022-09-12T13:53:43;2.47;;;0.80;;
46755;SDS011;32506;52.826;-1.192;2022-09-12T13:56:18;2.53;;;0.80;;
46755;SDS011;32506;52.826;-1.192;2022-09-12T13:58:51;2.67;;;0.85;;
46755;SDS011;32506;52.826;-1.192;2022-09-12T14:01:21;3.60;;;0.88;;
46755;SDS011;32506;52.826;-1.192;2022-09-12T14:03:55;2.30;;;0.73;;
46755;SDS011;32506;52.826;-1.192;2022-09-12T14:09:14;4.15;;;1.02;;
46755;SDS011;32506;52.826;-1.192;2022-09-12T14:11:45;3.17;;;0.80;;
46755;SDS011;32506;52.826;-1.192;2022-09-12T14:14:19;2.22;;;0.70;;
46755;SDS011;32506;52.826;-1.192;2022-09-12T14:16:57;2.20;;;0.70;;
46755;SDS011;32506;52.826;-1.192;2022-09-12T14:19:24;1.63;;;0.63;;
46755;SDS011;32506;52.826;-1.192;2022-09-12T14:21:53;2.05;;;0.70;;
46755;SDS011;32506;52.826;-1.192;2022-09-12T14:24:21;2.60;;;0.70;;
46755;SDS011;32506;52.826;-1.192;2022-09-12T14:26:48;1.38;;;0.60;;
46755;SDS011;32506;52.826;-1.192;2022-09-12T14:29:18;3.72;;;0.63;;
46755;SDS011;32506;52.826;-1.192;2022-09-12T14:31:45;1.75;;;0.77;;
46755;SDS011;32506;52.826;-1.192;2022-09-12T14:36:49;2.70;;;0.63;;
46755;SDS011;32506;52.826;-1.192;2022-09-12T14:44:25;2.47;;;0.68;;
46755;SDS011;32506;52.826;-1.192;2022-09-12T14:46:52;2.53;;;0.60;;
46755;SDS011;32506;52.826;-1.192;2022-09-12T14:49:19;2.22;;;0.80;;
46755;SDS011;32506;52.826;-1.192;2022-09-12T14:54:53;3.60;;;0.60;;
46755;SDS011;32506;52.826;-1.192;2022-09-12T14:57:29;2.25;;;0.60;;
46755;SDS011;32506;52.826;-1.192;2022-09-12T15:02:38;1.55;;;0.52;;
46755;SDS011;32506;52.826;-1.192;2022-09-12T15:10:00;2.75;;;0.73;;
46755;SDS011;32506;52.826;-1.192;2022-09-12T15:12:29;1.55;;;0.45;;
46755;SDS011;32506;52.826;-1.192;2022-09-12T15:15:16;2.25;;;0.50;;
46755;SDS011;32506;52.826;-1.192;2022-09-12T15:17:41;2.08;;;0.60;;
46755;SDS011;32506;52.826;-1.192;2022-09-12T15:20:07;2.35;;;0.50;;
46755;SDS011;32506;52.826;-1.192;2022-09-12T15:22:34;1.75;;;0.55;;
46755;SDS011;32506;52.826;-1.192;2022-09-12T15:25:01;1.80;;;0.52;;
46755;SDS011;32506;52.826;-1.192;2022-09-12T15:27:27;3.13;;;0.80;;
46755;SDS011;32506;52.826;-1.192;2022-09-12T15:29:53;3.35;;;0.95;;
46755;SDS011;32506;52.826;-1.192;2022-09-12T15:32:22;2.42;;;0.60;;
46755;SDS011;32506;52.826;-1.192;2022-09-12T15:34:49;1.95;;;0.80;;
46755;SDS011;32506;52.826;-1.192;2022-09-12T15:37:16;1.48;;;0.50;;
46755;SDS011;32506;52.826;-1.192;2022-09-12T15:39:44;2.90;;;0.70;;
46755;SDS011;32506;52.826;-1.192;2022-09-12T15:42:10;2.42;;;0.60;;
46755;SDS011;32506;52.826;-1.192;2022-09-12T15:44:37;2.08;;;0.63;;
46755;SDS011;32506;52.826;-1.192;2022-09-12T15:47:03;2.67;;;0.50;;
46755;SDS011;32506;52.826;-1.192;2022-09-12T15:49:29;2.72;;;0.73;;
46755;SDS011;32506;52.826;-1.192;2022-09-12T15:51:54;1.60;;;0.43;;
46755;SDS011;32506;52.826;-1.192;2022-09-12T15:54:20;3.42;;;0.70;;
46755;SDS011;32506;52.826;-1.192;2022-09-12T15:56:45;0.98;;;0.47;;
46755;SDS011;32506;52.826;-1.192;2022-09-12T15:59:11;5.85;;;1.08;;
46755;SDS011;32506;52.826;-1.192;2022-09-12T16:01:37;2.58;;;0.80;;
46755;SDS011;32506;52.826;-1.192;2022-09-12T16:04:03;2.28;;;0.60;;
46755;SDS011;32506;52.826;-1.192;2022-09-12T16:06:42;1.83;;;0.60;;
46755;SDS011;32506;52.826;-1.192;2022-09-12T16:09:08;3.53;;;0.93;;
46755;SDS011;32506;52.826;-1.192;2022-09-12T16:11:34;3.72;;;0.60;;
46755;SDS011;32506;52.826;-1.192;2022-09-12T16:13:59;1.98;;;0.70;;
46755;SDS011;32506;52.826;-1.192;2022-09-12T16:16:25;3.08;;;0.65;;
46755;SDS011;32506;52.826;-1.192;2022-09-12T16:18:50;1.73;;;0.77;;
46755;SDS011;32506;52.826;-1.192;2022-09-12T16:21:16;3.33;;;1.17;;
46755;SDS011;32506;52.826;-1.192;2022-09-12T16:23:42;2.08;;;0.80;;
46755;SDS011;32506;52.826;-1.192;2022-09-12T16:26:08;1.88;;;0.63;;
46755;SDS011;32506;52.826;-1.192;2022-09-12T16:28:34;2.45;;;1.13;;
46755;SDS011;32506;52.826;-1.192;2022-09-12T16:31:00;2.10;;;1.02;;
46755;SDS011;32506;52.826;-1.192;2022-09-12T16:33:28;1.95;;;0.80;;
46755;SDS011;32506;52.826;-1.192;2022-09-12T16:36:07;2.22;;;0.82;;
46755;SDS011;32506;52.826;-1.192;2022-09-12T16:38:44;3.88;;;1.13;;
46755;SDS011;32506;52.826;-1.192;2022-09-12T16:41:12;3.35;;;0.82;;
46755;SDS011;32506;52.826;-1.192;2022-09-12T16:43:39;4.55;;;0.80;;
46755;SDS011;32506;52.826;-1.192;2022-09-12T16:46:07;4.63;;;1.17;;
46755;SDS011;32506;52.826;-1.192;2022-09-12T16:48:40;3.35;;;1.10;;
46755;SDS011;32506;52.826;-1.192;2022-09-12T16:51:09;2.38;;;0.95;;
46755;SDS011;32506;52.826;-1.192;2022-09-12T16:53:35;3.83;;;1.10;;
46755;SDS011;32506;52.826;-1.192;2022-09-12T16:56:02;3.78;;;1.00;;
46755;SDS011;32506;52.826;-1.192;2022-09-12T16:58:33;3.78;;;1.83;;
46755;SDS011;32506;52.826;-1.192;2022-09-12T17:01:04;3.25;;;0.77;;
46755;SDS011;32506;52.826;-1.192;2022-09-12T17:03:31;2.78;;;0.98;;
46755;SDS011;32506;52.826;-1.192;2022-09-12T17:06:00;2.35;;;1.08;;
46755;SDS011;32506;52.826;-1.192;2022-09-12T17:08:28;2.33;;;0.90;;
46755;SDS011;32506;52.826;-1.192;2022-09-12T17:11:04;2.60;;;1.10;;
46755;SDS011;32506;52.826;-1.192;2022-09-12T17:13:31;3.20;;;1.52;;
46755;SDS011;32506;52.826;-1.192;2022-09-12T17:15:57;2.53;;;1.08;;
46755;SDS011;32506;52.826;-1.192;2022-09-12T17:18:24;3.38;;;1.05;;
46755;SDS011;32506;52.826;-1.192;2022-09-12T17:20:50;2.85;;;1.10;;
46755;SDS011;32506;52.826;-1.192;2022-09-12T17:23:16;3.47;;;1.02;;
46755;SDS011;32506;52.826;-1.192;2022-09-12T17:25:48;3.35;;;0.90;;
46755;SDS011;32506;52.826;-1.192;2022-09-12T17:28:18;2.20;;;0.85;;
46755;SDS011;32506;52.826;-1.192;2022-09-12T17:30:45;2.13;;;0.80;;
46755;SDS011;32506;52.826;-1.192;2022-09-12T17:33:11;3.35;;;1.15;;
46755;SDS011;32506;52.826;-1.192;2022-09-12T17:35:36;1.40;;;0.70;;
46755;SDS011;32506;52.826;-1.192;2022-09-12T17:38:03;2.95;;;0.90;;
46755;SDS011;32506;52.826;-1.192;2022-09-12T17:40:29;2.17;;;0.93;;
46755;SDS011;32506;52.826;-1.192;2022-09-12T17:42:55;2.28;;;0.98;;